sensor_id;sensor_type;location;lat;lon;timestamp;P1;durP1;ratioP1;P2;durP2;ratioP2
3995;SDS011;2012;49.794;9.722;2023-03-01T00:02:10;16.87;;;11.60;;
3995;SDS011;2012;49.794;9.722;2023-03-01T00:04:37;16.87;;;11.70;;
3995;SDS011;2012;49.794;9.722;2023-03-01T00:07:03;15.47;;;11.10;;
3995;SDS011;2012;49.794;9.722;2023-03-01T00:09:30;17.40;;;11.10;;
3995;SDS011;2012;49.794;9.722;2023-03-01T00:11:57;14.00;;;10.73;;
3995;SDS011;2012;49.794;9.722;2023-03-01T00:14:23;19.53;;;11.07;;
3995;SDS011;2012;49.794;9.722;2023-03-01T00:16:50;16.77;;;11.07;;
3995;SDS011;2012;49.794;9.722;2023-03-01T00:19:17;17.27;;;12.23;;
3995;SDS011;2012;49.794;9.722;2023-03-01T00:21:45;16.03;;;11.20;;
3995;SDS011;2012;49.794;9.722;2023-03-01T00:24:12;21.60;;;12.00;;
3995;SDS011;2012;49.794;9.722;2023-03-01T00:26:39;17.57;;;11.60;;
3995;SDS011;2012;49.794;9.722;2023-03-01T00:29:06;18.47;;;11.67;;
3995;SDS011;2012;49.794;9.722;2023-03-01T00:31:33;18.70;;;11.80;;
3995;SDS011;2012;49.794;9.722;2023-03-01T00:34:02;23.10;;;12.50;;
3995;SDS011;2012;49.794;9.722;2023-03-01T00:36:34;21.77;;;13.03;;
3995;SDS011;2012;49.794;9.722;2023-03-01T00:39:03;17.27;;;12.97;;
3995;SDS011;2012;49.794;9.722;2023-03-01T00:41:31;17.73;;;11.60;;
3995;SDS011;2012;49.794;9.722;2023-03-01T00:44:00;20.63;;;13.47;;
3995;SDS011;2012;49.794;9.722;2023-03-01T00:46:27;19.90;;;13.33;;
3995;SDS011;2012;49.794;9.722;2023-03-01T00:48:56;17.23;;;11.40;;
3995;SDS011;2012;49.794;9.722;2023-03-01T00:51:26;18.17;;;13.30;;
3995;SDS011;2012;49.794;9.722;2023-03-01T00:53:55;19.43;;;11.93;;
3995;SDS011;2012;49.794;9.722;2023-03-01T00:56:23;20.60;;;14.10;;
3995;SDS011;2012;49.794;9.722;2023-03-01T00:58:52;20.67;;;13.80;;
3995;SDS011;2012;49.794;9.722;2023-03-01T01:01:20;21.93;;;14.23;;
3995;SDS011;2012;49.794;9.722;2023-03-01T01:03:53;19.60;;;13.73;;
3995;SDS011;2012;49.794;9.722;2023-03-01T01:06:36;21.27;;;12.97;;
3995;SDS011;2012;49.794;9.722;2023-03-01T01:09:05;17.50;;;12.10;;
3995;SDS011;2012;49.794;9.722;2023-03-01T01:11:33;16.33;;;12.13;;
3995;SDS011;2012;49.794;9.722;2023-03-01T01:14:01;23.50;;;11.77;;
3995;SDS011;2012;49.794;9.722;2023-03-01T01:16:29;24.40;;;13.00;;
3995;SDS011;2012;49.794;9.722;2023-03-01T01:18:56;17.13;;;12.83;;
3995;SDS011;2012;49.794;9.722;2023-03-01T01:21:23;24.30;;;12.60;;
3995;SDS011;2012;49.794;9.722;2023-03-01T01:23:51;19.47;;;12.50;;
3995;SDS011;2012;49.794;9.722;2023-03-01T01:26:22;19.67;;;12.90;;
3995;SDS011;2012;49.794;9.722;2023-03-01T01:28:55;17.40;;;12.30;;
3995;SDS011;2012;49.794;9.722;2023-03-01T01:31:22;22.53;;;14.17;;
3995;SDS011;2012;49.794;9.722;2023-03-01T01:33:50;22.63;;;13.10;;
3995;SDS011;2012;49.794;9.722;2023-03-01T01:36:18;18.20;;;12.50;;
3995;SDS011;2012;49.794;9.722;2023-03-01T01:38:45;23.10;;;14.37;;
3995;SDS011;2012;49.794;9.722;2023-03-01T01:41:12;20.33;;;13.67;;
3995;SDS011;2012;49.794;9.722;2023-03-01T01:44:24;20.17;;;12.33;;
3995;SDS011;2012;49.794;9.722;2023-03-01T01:46:38;16.00;;;11.80;;
3995;SDS011;2012;49.794;9.722;2023-03-01T01:49:35;17.67;;;12.00;;
3995;SDS011;2012;49.794;9.722;2023-03-01T01:52:07;17.10;;;11.90;;
3995;SDS011;2012;49.794;9.722;2023-03-01T01:54:44;21.17;;;12.13;;
3995;SDS011;2012;49.794;9.722;2023-03-01T01:57:16;15.97;;;11.13;;
3995;SDS011;2012;49.794;9.722;2023-03-01T01:59:49;17.00;;;11.70;;
3995;SDS011;2012;49.794;9.722;2023-03-01T02:02:18;18.40;;;12.57;;
3995;SDS011;2012;49.794;9.722;2023-03-01T02:04:46;22.53;;;12.80;;
3995;SDS011;2012;49.794;9.722;2023-03-01T02:07:17;18.30;;;12.70;;
3995;SDS011;2012;49.794;9.722;2023-03-01T02:09:48;23.20;;;13.03;;
3995;SDS011;2012;49.794;9.722;2023-03-01T02:12:16;22.47;;;13.90;;
3995;SDS011;2012;49.794;9.722;2023-03-01T02:14:45;18.40;;;11.70;;
3995;SDS011;2012;49.794;9.722;2023-03-01T02:17:12;19.37;;;13.20;;
3995;SDS011;2012;49.794;9.722;2023-03-01T02:22:33;17.00;;;11.87;;
3995;SDS011;2012;49.794;9.722;2023-03-01T02:30:22;18.83;;;13.00;;
3995;SDS011;2012;49.794;9.722;2023-03-01T02:32:51;18.63;;;14.00;;
3995;SDS011;2012;49.794;9.722;2023-03-01T02:35:20;18.57;;;12.70;;
3995;SDS011;2012;49.794;9.722;2023-03-01T02:37:47;21.97;;;12.67;;
3995;SDS011;2012;49.794;9.722;2023-03-01T02:40:16;17.90;;;12.70;;
3995;SDS011;2012;49.794;9.722;2023-03-01T02:42:46;24.23;;;12.23;;
3995;SDS011;2012;49.794;9.722;2023-03-01T02:45:22;20.00;;;12.17;;
3995;SDS011;2012;49.794;9.722;2023-03-01T02:47:49;21.07;;;13.03;;
3995;SDS011;2012;49.794;9.722;2023-03-01T02:50:25;18.67;;;12.20;;
3995;SDS011;2012;49.794;9.722;2023-03-01T02:53:27;20.03;;;12.97;;
3995;SDS011;2012;49.794;9.722;2023-03-01T02:56:24;23.73;;;13.80;;
3995;SDS011;2012;49.794;9.722;2023-03-01T02:58:52;18.80;;;12.53;;
3995;SDS011;2012;49.794;9.722;2023-03-01T03:01:19;22.37;;;13.50;;
3995;SDS011;2012;49.794;9.722;2023-03-01T03:03:46;22.70;;;14.40;;
3995;SDS011;2012;49.794;9.722;2023-03-01T03:06:13;21.33;;;15.00;;
3995;SDS011;2012;49.794;9.722;2023-03-01T03:08:40;20.60;;;13.07;;
3995;SDS011;2012;49.794;9.722;2023-03-01T03:11:07;20.43;;;13.70;;
3995;SDS011;2012;49.794;9.722;2023-03-01T03:13:33;22.93;;;14.57;;
3995;SDS011;2012;49.794;9.722;2023-03-01T03:16:01;18.37;;;12.73;;
3995;SDS011;2012;49.794;9.722;2023-03-01T03:18:28;23.57;;;14.40;;
3995;SDS011;2012;49.794;9.722;2023-03-01T03:20:55;20.97;;;13.57;;
3995;SDS011;2012;49.794;9.722;2023-03-01T03:23:22;22.83;;;12.93;;
3995;SDS011;2012;49.794;9.722;2023-03-01T03:25:50;19.57;;;12.87;;
3995;SDS011;2012;49.794;9.722;2023-03-01T03:28:17;20.03;;;12.80;;
3995;SDS011;2012;49.794;9.722;2023-03-01T03:30:44;30.53;;;13.67;;
3995;SDS011;2012;49.794;9.722;2023-03-01T03:33:11;20.77;;;13.30;;
3995;SDS011;2012;49.794;9.722;2023-03-01T03:35:45;18.27;;;14.07;;
3995;SDS011;2012;49.794;9.722;2023-03-01T03:38:14;19.60;;;13.43;;
3995;SDS011;2012;49.794;9.722;2023-03-01T03:40:44;22.80;;;13.67;;
3995;SDS011;2012;49.794;9.722;2023-03-01T03:43:16;24.70;;;14.53;;
3995;SDS011;2012;49.794;9.722;2023-03-01T03:45:48;21.83;;;13.80;;
3995;SDS011;2012;49.794;9.722;2023-03-01T03:48:16;21.63;;;12.77;;
3995;SDS011;2012;49.794;9.722;2023-03-01T03:50:47;21.00;;;13.20;;
3995;SDS011;2012;49.794;9.722;2023-03-01T03:53:15;22.90;;;14.13;;
3995;SDS011;2012;49.794;9.722;2023-03-01T03:55:42;20.20;;;14.60;;
3995;SDS011;2012;49.794;9.722;2023-03-01T03:58:10;19.50;;;12.70;;
3995;SDS011;2012;49.794;9.722;2023-03-01T04:00:38;21.67;;;12.90;;
3995;SDS011;2012;49.794;9.722;2023-03-01T04:03:10;18.80;;;12.77;;
3995;SDS011;2012;49.794;9.722;2023-03-01T04:05:38;22.83;;;14.70;;
3995;SDS011;2012;49.794;9.722;2023-03-01T04:08:06;19.97;;;12.73;;
3995;SDS011;2012;49.794;9.722;2023-03-01T04:10:38;21.90;;;12.80;;
3995;SDS011;2012;49.794;9.722;2023-03-01T04:13:08;21.30;;;12.43;;
3995;SDS011;2012;49.794;9.722;2023-03-01T04:15:38;20.03;;;13.27;;
3995;SDS011;2012;49.794;9.722;2023-03-01T04:18:05;23.73;;;13.57;;
3995;SDS011;2012;49.794;9.722;2023-03-01T04:20:33;22.10;;;15.10;;
3995;SDS011;2012;49.794;9.722;2023-03-01T04:23:04;19.67;;;13.73;;
3995;SDS011;2012;49.794;9.722;2023-03-01T04:25:40;27.93;;;14.90;;
3995;SDS011;2012;49.794;9.722;2023-03-01T04:28:20;19.70;;;14.07;;
3995;SDS011;2012;49.794;9.722;2023-03-01T04:30:52;21.10;;;13.07;;
3995;SDS011;2012;49.794;9.722;2023-03-01T04:33:19;19.93;;;12.67;;
3995;SDS011;2012;49.794;9.722;2023-03-01T04:35:47;23.50;;;13.73;;
3995;SDS011;2012;49.794;9.722;2023-03-01T04:38:16;21.60;;;15.03;;
3995;SDS011;2012;49.794;9.722;2023-03-01T04:40:43;20.17;;;14.47;;
3995;SDS011;2012;49.794;9.722;2023-03-01T04:43:10;23.33;;;13.20;;
3995;SDS011;2012;49.794;9.722;2023-03-01T04:45:39;22.37;;;14.73;;
3995;SDS011;2012;49.794;9.722;2023-03-01T04:48:06;20.07;;;14.30;;
3995;SDS011;2012;49.794;9.722;2023-03-01T04:50:33;22.27;;;14.80;;
3995;SDS011;2012;49.794;9.722;2023-03-01T04:53:00;20.73;;;15.20;;
3995;SDS011;2012;49.794;9.722;2023-03-01T04:55:27;22.77;;;14.60;;
3995;SDS011;2012;49.794;9.722;2023-03-01T04:57:55;23.03;;;15.60;;
3995;SDS011;2012;49.794;9.722;2023-03-01T05:00:22;21.87;;;14.87;;
3995;SDS011;2012;49.794;9.722;2023-03-01T05:02:53;26.83;;;16.50;;
3995;SDS011;2012;49.794;9.722;2023-03-01T05:05:31;23.77;;;16.03;;
3995;SDS011;2012;49.794;9.722;2023-03-01T05:08:00;21.13;;;15.00;;
3995;SDS011;2012;49.794;9.722;2023-03-01T05:10:30;25.70;;;15.40;;
3995;SDS011;2012;49.794;9.722;2023-03-01T05:12:58;21.97;;;15.03;;
3995;SDS011;2012;49.794;9.722;2023-03-01T05:15:26;24.97;;;14.70;;
3995;SDS011;2012;49.794;9.722;2023-03-01T05:17:54;19.67;;;14.30;;
3995;SDS011;2012;49.794;9.722;2023-03-01T05:20:28;22.50;;;15.47;;
3995;SDS011;2012;49.794;9.722;2023-03-01T05:22:57;20.90;;;14.27;;
3995;SDS011;2012;49.794;9.722;2023-03-01T05:25:25;25.83;;;15.27;;
3995;SDS011;2012;49.794;9.722;2023-03-01T05:27:53;22.07;;;15.03;;
3995;SDS011;2012;49.794;9.722;2023-03-01T05:30:19;21.30;;;13.90;;
3995;SDS011;2012;49.794;9.722;2023-03-01T05:32:48;19.13;;;13.47;;
3995;SDS011;2012;49.794;9.722;2023-03-01T05:35:21;23.90;;;14.63;;
3995;SDS011;2012;49.794;9.722;2023-03-01T05:37:49;22.03;;;15.00;;
3995;SDS011;2012;49.794;9.722;2023-03-01T05:40:17;24.10;;;15.67;;
3995;SDS011;2012;49.794;9.722;2023-03-01T05:42:47;27.70;;;15.40;;
3995;SDS011;2012;49.794;9.722;2023-03-01T05:45:15;22.97;;;14.30;;
3995;SDS011;2012;49.794;9.722;2023-03-01T05:47:44;22.40;;;15.97;;
3995;SDS011;2012;49.794;9.722;2023-03-01T05:50:13;24.03;;;15.73;;
3995;SDS011;2012;49.794;9.722;2023-03-01T05:52:49;22.70;;;14.30;;
3995;SDS011;2012;49.794;9.722;2023-03-01T05:55:18;22.50;;;15.20;;
3995;SDS011;2012;49.794;9.722;2023-03-01T05:57:46;21.73;;;15.07;;
3995;SDS011;2012;49.794;9.722;2023-03-01T06:00:14;25.70;;;15.00;;
3995;SDS011;2012;49.794;9.722;2023-03-01T06:02:42;20.97;;;14.27;;
3995;SDS011;2012;49.794;9.722;2023-03-01T06:05:09;24.70;;;14.73;;
3995;SDS011;2012;49.794;9.722;2023-03-01T06:07:37;24.90;;;14.97;;
3995;SDS011;2012;49.794;9.722;2023-03-01T06:10:05;20.67;;;15.50;;
3995;SDS011;2012;49.794;9.722;2023-03-01T06:12:33;30.27;;;16.13;;
3995;SDS011;2012;49.794;9.722;2023-03-01T06:15:02;26.27;;;15.73;;
3995;SDS011;2012;49.794;9.722;2023-03-01T06:17:31;21.50;;;14.63;;
3995;SDS011;2012;49.794;9.722;2023-03-01T06:20:04;28.03;;;17.20;;
3995;SDS011;2012;49.794;9.722;2023-03-01T06:22:32;30.07;;;16.83;;
3995;SDS011;2012;49.794;9.722;2023-03-01T06:24:59;27.07;;;15.97;;
3995;SDS011;2012;49.794;9.722;2023-03-01T06:27:25;23.50;;;15.97;;
3995;SDS011;2012;49.794;9.722;2023-03-01T06:29:52;27.80;;;16.73;;
3995;SDS011;2012;49.794;9.722;2023-03-01T06:32:19;28.27;;;16.77;;
3995;SDS011;2012;49.794;9.722;2023-03-01T06:34:46;33.37;;;18.07;;
3995;SDS011;2012;49.794;9.722;2023-03-01T06:37:13;25.33;;;16.83;;
3995;SDS011;2012;49.794;9.722;2023-03-01T06:39:40;25.40;;;17.00;;
3995;SDS011;2012;49.794;9.722;2023-03-01T06:42:07;23.70;;;16.70;;
3995;SDS011;2012;49.794;9.722;2023-03-01T06:44:36;28.70;;;16.47;;
3995;SDS011;2012;49.794;9.722;2023-03-01T06:47:03;28.60;;;16.40;;
3995;SDS011;2012;49.794;9.722;2023-03-01T06:49:30;30.40;;;17.43;;
3995;SDS011;2012;49.794;9.722;2023-03-01T06:51:57;33.90;;;18.30;;
3995;SDS011;2012;49.794;9.722;2023-03-01T06:54:24;32.73;;;18.10;;
3995;SDS011;2012;49.794;9.722;2023-03-01T06:56:51;28.73;;;17.53;;
3995;SDS011;2012;49.794;9.722;2023-03-01T06:59:17;24.50;;;15.20;;
3995;SDS011;2012;49.794;9.722;2023-03-01T07:01:44;26.50;;;17.10;;
3995;SDS011;2012;49.794;9.722;2023-03-01T07:04:12;30.30;;;17.80;;
3995;SDS011;2012;49.794;9.722;2023-03-01T07:06:39;24.73;;;17.57;;
3995;SDS011;2012;49.794;9.722;2023-03-01T07:09:05;28.20;;;17.47;;
3995;SDS011;2012;49.794;9.722;2023-03-01T07:11:32;25.10;;;16.37;;
3995;SDS011;2012;49.794;9.722;2023-03-01T07:13:59;31.57;;;16.97;;
3995;SDS011;2012;49.794;9.722;2023-03-01T07:16:26;27.67;;;16.13;;
3995;SDS011;2012;49.794;9.722;2023-03-01T07:18:53;21.87;;;15.40;;
3995;SDS011;2012;49.794;9.722;2023-03-01T07:21:20;24.07;;;14.83;;
3995;SDS011;2012;49.794;9.722;2023-03-01T07:23:47;25.33;;;15.83;;
3995;SDS011;2012;49.794;9.722;2023-03-01T07:26:15;25.27;;;14.70;;
3995;SDS011;2012;49.794;9.722;2023-03-01T07:28:41;29.93;;;17.07;;
3995;SDS011;2012;49.794;9.722;2023-03-01T07:31:08;30.00;;;17.50;;
3995;SDS011;2012;49.794;9.722;2023-03-01T07:33:35;24.93;;;14.60;;
3995;SDS011;2012;49.794;9.722;2023-03-01T07:36:03;22.37;;;15.27;;
3995;SDS011;2012;49.794;9.722;2023-03-01T07:38:30;21.60;;;13.27;;
3995;SDS011;2012;49.794;9.722;2023-03-01T07:40:59;26.70;;;16.13;;
3995;SDS011;2012;49.794;9.722;2023-03-01T07:43:27;23.67;;;15.77;;
3995;SDS011;2012;49.794;9.722;2023-03-01T07:45:59;22.77;;;14.10;;
3995;SDS011;2012;49.794;9.722;2023-03-01T07:48:27;22.70;;;13.17;;
3995;SDS011;2012;49.794;9.722;2023-03-01T07:50:57;24.00;;;14.57;;
3995;SDS011;2012;49.794;9.722;2023-03-01T07:53:28;22.43;;;13.67;;
3995;SDS011;2012;49.794;9.722;2023-03-01T07:56:05;26.80;;;15.20;;
3995;SDS011;2012;49.794;9.722;2023-03-01T07:58:34;21.53;;;13.63;;
3995;SDS011;2012;49.794;9.722;2023-03-01T08:01:03;23.67;;;13.90;;
3995;SDS011;2012;49.794;9.722;2023-03-01T08:03:30;24.30;;;14.10;;
3995;SDS011;2012;49.794;9.722;2023-03-01T08:06:01;29.83;;;15.03;;
3995;SDS011;2012;49.794;9.722;2023-03-01T08:08:28;24.00;;;13.00;;
3995;SDS011;2012;49.794;9.722;2023-03-01T08:10:56;21.07;;;13.60;;
3995;SDS011;2012;49.794;9.722;2023-03-01T08:13:24;21.70;;;13.83;;
3995;SDS011;2012;49.794;9.722;2023-03-01T08:15:51;23.83;;;14.17;;
3995;SDS011;2012;49.794;9.722;2023-03-01T08:18:19;19.80;;;12.27;;
3995;SDS011;2012;49.794;9.722;2023-03-01T08:20:46;22.07;;;13.03;;
3995;SDS011;2012;49.794;9.722;2023-03-01T08:23:13;21.60;;;14.73;;
3995;SDS011;2012;49.794;9.722;2023-03-01T08:25:40;24.43;;;14.00;;
3995;SDS011;2012;49.794;9.722;2023-03-01T08:28:07;29.03;;;12.73;;
3995;SDS011;2012;49.794;9.722;2023-03-01T08:30:34;24.60;;;14.33;;
3995;SDS011;2012;49.794;9.722;2023-03-01T08:33:00;24.03;;;14.50;;
3995;SDS011;2012;49.794;9.722;2023-03-01T08:35:27;21.67;;;14.03;;
3995;SDS011;2012;49.794;9.722;2023-03-01T08:37:54;23.73;;;13.03;;
3995;SDS011;2012;49.794;9.722;2023-03-01T08:40:21;20.80;;;12.60;;
3995;SDS011;2012;49.794;9.722;2023-03-01T08:42:47;19.83;;;12.90;;
3995;SDS011;2012;49.794;9.722;2023-03-01T08:45:14;19.40;;;12.77;;
3995;SDS011;2012;49.794;9.722;2023-03-01T08:47:44;23.97;;;14.40;;
3995;SDS011;2012;49.794;9.722;2023-03-01T08:50:11;22.27;;;12.70;;
3995;SDS011;2012;49.794;9.722;2023-03-01T08:52:38;28.60;;;13.77;;
3995;SDS011;2012;49.794;9.722;2023-03-01T08:55:05;20.67;;;12.80;;
3995;SDS011;2012;49.794;9.722;2023-03-01T08:57:32;20.83;;;13.23;;
3995;SDS011;2012;49.794;9.722;2023-03-01T08:59:59;25.87;;;13.73;;
3995;SDS011;2012;49.794;9.722;2023-03-01T09:02:26;21.03;;;12.67;;
3995;SDS011;2012;49.794;9.722;2023-03-01T09:04:53;24.20;;;14.83;;
3995;SDS011;2012;49.794;9.722;2023-03-01T09:07:19;19.67;;;13.27;;
3995;SDS011;2012;49.794;9.722;2023-03-01T09:09:46;24.67;;;14.17;;
3995;SDS011;2012;49.794;9.722;2023-03-01T09:12:13;28.30;;;14.33;;
3995;SDS011;2012;49.794;9.722;2023-03-01T09:14:40;19.10;;;13.50;;
3995;SDS011;2012;49.794;9.722;2023-03-01T09:17:07;21.37;;;14.00;;
3995;SDS011;2012;49.794;9.722;2023-03-01T09:19:34;23.37;;;14.20;;
3995;SDS011;2012;49.794;9.722;2023-03-01T09:22:02;23.33;;;15.17;;
3995;SDS011;2012;49.794;9.722;2023-03-01T09:24:30;24.17;;;14.70;;
3995;SDS011;2012;49.794;9.722;2023-03-01T09:26:56;25.13;;;15.40;;
3995;SDS011;2012;49.794;9.722;2023-03-01T09:29:23;23.00;;;15.40;;
3995;SDS011;2012;49.794;9.722;2023-03-01T09:31:51;22.47;;;14.47;;
3995;SDS011;2012;49.794;9.722;2023-03-01T09:34:21;26.03;;;14.27;;
3995;SDS011;2012;49.794;9.722;2023-03-01T09:36:49;29.70;;;16.67;;
3995;SDS011;2012;49.794;9.722;2023-03-01T09:39:17;27.00;;;16.10;;
3995;SDS011;2012;49.794;9.722;2023-03-01T09:41:49;26.80;;;16.77;;
3995;SDS011;2012;49.794;9.722;2023-03-01T09:44:27;31.23;;;15.10;;
3995;SDS011;2012;49.794;9.722;2023-03-01T09:47:14;26.23;;;15.40;;
3995;SDS011;2012;49.794;9.722;2023-03-01T09:50:33;26.63;;;16.00;;
3995;SDS011;2012;49.794;9.722;2023-03-01T09:52:42;25.20;;;16.33;;
3995;SDS011;2012;49.794;9.722;2023-03-01T09:55:14;21.77;;;15.63;;
3995;SDS011;2012;49.794;9.722;2023-03-01T09:57:50;21.90;;;14.20;;
3995;SDS011;2012;49.794;9.722;2023-03-01T10:02:59;26.00;;;15.10;;
3995;SDS011;2012;49.794;9.722;2023-03-01T10:08:38;23.47;;;14.30;;
3995;SDS011;2012;49.794;9.722;2023-03-01T10:11:22;22.13;;;14.47;;
3995;SDS011;2012;49.794;9.722;2023-03-01T10:16:43;27.87;;;14.80;;
3995;SDS011;2012;49.794;9.722;2023-03-01T10:19:30;26.80;;;14.67;;
3995;SDS011;2012;49.794;9.722;2023-03-01T10:24:56;23.37;;;13.30;;
3995;SDS011;2012;49.794;9.722;2023-03-01T10:27:26;22.53;;;14.67;;
3995;SDS011;2012;49.794;9.722;2023-03-01T10:30:04;29.90;;;14.90;;
3995;SDS011;2012;49.794;9.722;2023-03-01T10:32:39;23.10;;;13.40;;
3995;SDS011;2012;49.794;9.722;2023-03-01T10:35:16;23.37;;;15.00;;
3995;SDS011;2012;49.794;9.722;2023-03-01T10:37:57;23.00;;;13.43;;
3995;SDS011;2012;49.794;9.722;2023-03-01T10:40:29;22.43;;;14.50;;
3995;SDS011;2012;49.794;9.722;2023-03-01T10:42:57;23.40;;;14.80;;
3995;SDS011;2012;49.794;9.722;2023-03-01T10:48:06;19.30;;;13.80;;
3995;SDS011;2012;49.794;9.722;2023-03-01T10:50:48;23.30;;;15.93;;
3995;SDS011;2012;49.794;9.722;2023-03-01T10:53:20;22.37;;;15.00;;
3995;SDS011;2012;49.794;9.722;2023-03-01T10:55:48;20.83;;;14.43;;
3995;SDS011;2012;49.794;9.722;2023-03-01T10:58:27;23.60;;;15.43;;
3995;SDS011;2012;49.794;9.722;2023-03-01T11:00:56;24.90;;;15.57;;
3995;SDS011;2012;49.794;9.722;2023-03-01T11:03:32;21.53;;;14.83;;
3995;SDS011;2012;49.794;9.722;2023-03-01T11:06:01;23.40;;;15.30;;
3995;SDS011;2012;49.794;9.722;2023-03-01T11:11:29;28.87;;;15.57;;
3995;SDS011;2012;49.794;9.722;2023-03-01T11:19:38;21.10;;;14.37;;
3995;SDS011;2012;49.794;9.722;2023-03-01T11:24:44;21.73;;;14.10;;
3995;SDS011;2012;49.794;9.722;2023-03-01T11:27:36;22.90;;;14.13;;
3995;SDS011;2012;49.794;9.722;2023-03-01T11:35:35;23.80;;;14.80;;
3995;SDS011;2012;49.794;9.722;2023-03-01T11:38:22;21.87;;;14.80;;
3995;SDS011;2012;49.794;9.722;2023-03-01T11:57:17;25.33;;;15.83;;
3995;SDS011;2012;49.794;9.722;2023-03-01T12:02:59;21.20;;;14.97;;
3995;SDS011;2012;49.794;9.722;2023-03-01T12:08:53;21.83;;;13.90;;
3995;SDS011;2012;49.794;9.722;2023-03-01T12:11:53;21.37;;;13.97;;
3995;SDS011;2012;49.794;9.722;2023-03-01T12:50:51;20.40;;;14.07;;
3995;SDS011;2012;49.794;9.722;2023-03-01T12:53:22;21.30;;;13.87;;
3995;SDS011;2012;49.794;9.722;2023-03-01T12:55:50;20.33;;;14.40;;
3995;SDS011;2012;49.794;9.722;2023-03-01T13:09:25;20.77;;;13.60;;
3995;SDS011;2012;49.794;9.722;2023-03-01T13:15:44;19.67;;;14.10;;
3995;SDS011;2012;49.794;9.722;2023-03-01T13:23:09;22.77;;;14.37;;
3995;SDS011;2012;49.794;9.722;2023-03-01T13:26:03;21.73;;;14.00;;
3995;SDS011;2012;49.794;9.722;2023-03-01T13:31:03;18.90;;;12.40;;
3995;SDS011;2012;49.794;9.722;2023-03-01T13:36:02;19.97;;;13.40;;
3995;SDS011;2012;49.794;9.722;2023-03-01T13:38:45;19.10;;;13.47;;
3995;SDS011;2012;49.794;9.722;2023-03-01T13:41:46;22.60;;;12.77;;
3995;SDS011;2012;49.794;9.722;2023-03-01T13:46:53;23.77;;;13.30;;
3995;SDS011;2012;49.794;9.722;2023-03-01T13:49:26;19.57;;;12.90;;
3995;SDS011;2012;49.794;9.722;2023-03-01T13:52:22;17.87;;;12.80;;
3995;SDS011;2012;49.794;9.722;2023-03-01T13:54:58;20.63;;;13.50;;
3995;SDS011;2012;49.794;9.722;2023-03-01T13:57:30;19.63;;;13.37;;
3995;SDS011;2012;49.794;9.722;2023-03-01T14:00:00;17.63;;;12.27;;
3995;SDS011;2012;49.794;9.722;2023-03-01T14:02:27;15.50;;;12.07;;
3995;SDS011;2012;49.794;9.722;2023-03-01T14:04:57;16.90;;;11.57;;
3995;SDS011;2012;49.794;9.722;2023-03-01T14:07:26;21.33;;;13.17;;
3995;SDS011;2012;49.794;9.722;2023-03-01T14:09:58;24.67;;;12.03;;
3995;SDS011;2012;49.794;9.722;2023-03-01T14:16:24;16.63;;;11.83;;
3995;SDS011;2012;49.794;9.722;2023-03-01T14:18:38;19.37;;;12.67;;
3995;SDS011;2012;49.794;9.722;2023-03-01T14:21:21;13.93;;;10.77;;
3995;SDS011;2012;49.794;9.722;2023-03-01T14:23:48;17.30;;;12.93;;
3995;SDS011;2012;49.794;9.722;2023-03-01T14:26:20;16.30;;;11.80;;
3995;SDS011;2012;49.794;9.722;2023-03-01T14:28:49;22.07;;;13.47;;
3995;SDS011;2012;49.794;9.722;2023-03-01T14:34:21;20.03;;;13.13;;
3995;SDS011;2012;49.794;9.722;2023-03-01T14:36:49;19.53;;;13.13;;
3995;SDS011;2012;49.794;9.722;2023-03-01T14:39:20;17.50;;;11.77;;
3995;SDS011;2012;49.794;9.722;2023-03-01T14:41:50;18.63;;;13.00;;
3995;SDS011;2012;49.794;9.722;2023-03-01T14:44:21;16.37;;;10.77;;
3995;SDS011;2012;49.794;9.722;2023-03-01T14:46:54;23.70;;;11.90;;
3995;SDS011;2012;49.794;9.722;2023-03-01T14:49:26;17.03;;;12.40;;
3995;SDS011;2012;49.794;9.722;2023-03-01T14:51:59;22.53;;;14.23;;
3995;SDS011;2012;49.794;9.722;2023-03-01T14:54:39;22.20;;;12.07;;
3995;SDS011;2012;49.794;9.722;2023-03-01T14:57:20;18.83;;;12.60;;
3995;SDS011;2012;49.794;9.722;2023-03-01T14:59:48;18.37;;;13.03;;
3995;SDS011;2012;49.794;9.722;2023-03-01T15:02:19;26.53;;;13.30;;
3995;SDS011;2012;49.794;9.722;2023-03-01T15:04:49;21.63;;;11.93;;
3995;SDS011;2012;49.794;9.722;2023-03-01T15:07:29;19.87;;;12.83;;
3995;SDS011;2012;49.794;9.722;2023-03-01T15:09:59;16.37;;;12.23;;
3995;SDS011;2012;49.794;9.722;2023-03-01T15:14:55;19.17;;;12.67;;
3995;SDS011;2012;49.794;9.722;2023-03-01T15:17:30;24.10;;;11.33;;
3995;SDS011;2012;49.794;9.722;2023-03-01T15:20:13;17.97;;;12.57;;
3995;SDS011;2012;49.794;9.722;2023-03-01T15:22:44;23.27;;;11.50;;
3995;SDS011;2012;49.794;9.722;2023-03-01T15:25:18;18.93;;;12.80;;
3995;SDS011;2012;49.794;9.722;2023-03-01T15:27:48;15.70;;;10.90;;
3995;SDS011;2012;49.794;9.722;2023-03-01T15:30:23;19.13;;;11.80;;
3995;SDS011;2012;49.794;9.722;2023-03-01T15:35:46;19.73;;;12.17;;
3995;SDS011;2012;49.794;9.722;2023-03-01T15:38:23;18.80;;;12.57;;
3995;SDS011;2012;49.794;9.722;2023-03-01T15:40:55;17.93;;;11.70;;
3995;SDS011;2012;49.794;9.722;2023-03-01T15:43:37;16.30;;;11.50;;
3995;SDS011;2012;49.794;9.722;2023-03-01T15:46:22;18.00;;;12.10;;
3995;SDS011;2012;49.794;9.722;2023-03-01T15:48:53;18.10;;;11.60;;
3995;SDS011;2012;49.794;9.722;2023-03-01T15:51:34;17.67;;;11.97;;
3995;SDS011;2012;49.794;9.722;2023-03-01T15:54:06;18.27;;;11.47;;
3995;SDS011;2012;49.794;9.722;2023-03-01T15:56:40;17.20;;;12.07;;
3995;SDS011;2012;49.794;9.722;2023-03-01T15:59:08;17.10;;;11.10;;
3995;SDS011;2012;49.794;9.722;2023-03-01T16:01:38;16.63;;;11.37;;
3995;SDS011;2012;49.794;9.722;2023-03-01T16:04:04;17.50;;;11.13;;
3995;SDS011;2012;49.794;9.722;2023-03-01T16:06:31;15.00;;;10.73;;
3995;SDS011;2012;49.794;9.722;2023-03-01T16:08:59;16.00;;;10.80;;
3995;SDS011;2012;49.794;9.722;2023-03-01T16:11:25;18.07;;;10.80;;
3995;SDS011;2012;49.794;9.722;2023-03-01T16:13:52;21.50;;;12.17;;
3995;SDS011;2012;49.794;9.722;2023-03-01T16:16:19;17.57;;;11.67;;
3995;SDS011;2012;49.794;9.722;2023-03-01T16:18:47;15.97;;;10.80;;
3995;SDS011;2012;49.794;9.722;2023-03-01T16:21:21;17.90;;;11.70;;
3995;SDS011;2012;49.794;9.722;2023-03-01T16:23:50;19.90;;;12.00;;
3995;SDS011;2012;49.794;9.722;2023-03-01T16:26:17;22.97;;;11.63;;
3995;SDS011;2012;49.794;9.722;2023-03-01T16:28:55;18.83;;;12.53;;
3995;SDS011;2012;49.794;9.722;2023-03-01T16:31:23;16.87;;;11.10;;
3995;SDS011;2012;49.794;9.722;2023-03-01T16:33:53;17.57;;;11.47;;
3995;SDS011;2012;49.794;9.722;2023-03-01T16:36:21;17.93;;;11.57;;
3995;SDS011;2012;49.794;9.722;2023-03-01T16:38:50;18.27;;;11.90;;
3995;SDS011;2012;49.794;9.722;2023-03-01T16:41:19;21.47;;;12.80;;
3995;SDS011;2012;49.794;9.722;2023-03-01T16:43:48;24.23;;;14.10;;
3995;SDS011;2012;49.794;9.722;2023-03-01T16:46:16;23.60;;;14.20;;
3995;SDS011;2012;49.794;9.722;2023-03-01T16:48:45;22.47;;;14.97;;
3995;SDS011;2012;49.794;9.722;2023-03-01T16:51:12;22.63;;;13.20;;
3995;SDS011;2012;49.794;9.722;2023-03-01T16:53:40;26.63;;;15.60;;
3995;SDS011;2012;49.794;9.722;2023-03-01T16:56:08;20.23;;;13.10;;
3995;SDS011;2012;49.794;9.722;2023-03-01T16:58:36;18.93;;;13.13;;
3995;SDS011;2012;49.794;9.722;2023-03-01T17:01:08;21.17;;;13.63;;
3995;SDS011;2012;49.794;9.722;2023-03-01T17:03:42;19.73;;;13.70;;
3995;SDS011;2012;49.794;9.722;2023-03-01T17:06:11;20.40;;;12.37;;
3995;SDS011;2012;49.794;9.722;2023-03-01T17:08:40;18.90;;;13.37;;
3995;SDS011;2012;49.794;9.722;2023-03-01T17:11:08;17.30;;;11.80;;
3995;SDS011;2012;49.794;9.722;2023-03-01T17:13:41;19.73;;;11.97;;
3995;SDS011;2012;49.794;9.722;2023-03-01T17:16:09;18.93;;;13.30;;
3995;SDS011;2012;49.794;9.722;2023-03-01T17:18:38;17.03;;;12.40;;
3995;SDS011;2012;49.794;9.722;2023-03-01T17:21:06;22.33;;;13.47;;
3995;SDS011;2012;49.794;9.722;2023-03-01T17:23:34;19.50;;;12.53;;
3995;SDS011;2012;49.794;9.722;2023-03-01T17:26:02;22.37;;;13.87;;